Lake Jackson, Texas
Current Conditions -  °F | °C
As of 2:53 AM on Friday 24 Oct 2014 (Local Time) from KLBX Reporting Station
Clear Clear  
Wind Chill: 55°   Ceiling: Unl
Heat Index: 55°   Visibility: 10mi
Dew Point: 55°   Wind: 5mph
Humidity: 100%   Direction: 360°N
Pressure: 30.1"   Gusts: NA
Location:  29.03°N, 95.45°W
Report Text: KLBX 240753Z AUTO 36004KT 10SM CLR 13/13 A3010 RMK AO2 SLP193 T01280128
Loading
Personal Weather Stations






























Interactive Weather Map
Tropical Storm Tracking
New forecast layout! Learn more

10-Day Weather Forecast

Advertisements
Track Severe Weather on mobile